sensor_id;sensor_type;location;lat;lon;timestamp;pressure;altitude;pressure_sealevel;temperature;humidity
50349;BME280;36250;48.740;22.174;2022-10-31T00:01:25;100944.00;;;11.87;100.00
50349;BME280;36250;48.740;22.174;2022-10-31T00:03:51;100941.34;;;11.87;100.00
50349;BME280;36250;48.740;22.174;2022-10-31T00:06:16;100941.72;;;11.84;100.00
50349;BME280;36250;48.740;22.174;2022-10-31T00:08:52;100942.09;;;11.81;100.00
50349;BME280;36250;48.740;22.174;2022-10-31T00:11:18;100942.81;;;11.75;100.00
50349;BME280;36250;48.740;22.174;2022-10-31T00:13:43;100940.41;;;11.65;100.00
50349;BME280;36250;48.740;22.174;2022-10-31T00:16:16;100947.25;;;11.59;100.00
50349;BME280;36250;48.740;22.174;2022-10-31T00:18:42;100945.16;;;11.55;100.00
50349;BME280;36250;48.740;22.174;2022-10-31T00:21:07;100942.22;;;11.50;100.00
50349;BME280;36250;48.740;22.174;2022-10-31T00:23:32;100941.72;;;11.46;100.00
50349;BME280;36250;48.740;22.174;2022-10-31T00:26:03;100942.91;;;11.43;100.00
50349;BME280;36250;48.740;22.174;2022-10-31T00:28:29;100938.50;;;11.36;100.00
50349;BME280;36250;48.740;22.174;2022-10-31T00:30:58;100937.84;;;11.34;100.00
50349;BME280;36250;48.740;22.174;2022-10-31T00:33:24;100940.66;;;11.32;100.00
50349;BME280;36250;48.740;22.174;2022-10-31T00:35:50;100938.56;;;11.27;100.00
50349;BME280;36250;48.740;22.174;2022-10-31T00:38:16;100944.88;;;11.26;100.00
50349;BME280;36250;48.740;22.174;2022-10-31T00:40:41;100943.88;;;11.27;100.00
50349;BME280;36250;48.740;22.174;2022-10-31T00:43:06;100937.72;;;11.27;100.00
50349;BME280;36250;48.740;22.174;2022-10-31T00:45:33;100940.38;;;11.27;100.00
50349;BME280;36250;48.740;22.174;2022-10-31T00:47:58;100941.50;;;11.33;100.00
50349;BME280;36250;48.740;22.174;2022-10-31T00:50:23;100938.84;;;11.33;100.00
50349;BME280;36250;48.740;22.174;2022-10-31T00:52:48;100940.59;;;11.40;100.00
50349;BME280;36250;48.740;22.174;2022-10-31T00:55:14;100937.44;;;11.45;100.00
50349;BME280;36250;48.740;22.174;2022-10-31T00:57:39;100940.38;;;11.50;100.00
50349;BME280;36250;48.740;22.174;2022-10-31T01:00:05;100941.00;;;11.52;100.00
50349;BME280;36250;48.740;22.174;2022-10-31T01:02:30;100948.25;;;11.58;100.00
50349;BME280;36250;48.740;22.174;2022-10-31T01:04:55;100944.06;;;11.64;100.00
50349;BME280;36250;48.740;22.174;2022-10-31T01:07:21;100936.59;;;11.68;100.00
50349;BME280;36250;48.740;22.174;2022-10-31T01:09:46;100942.16;;;11.73;100.00
50349;BME280;36250;48.740;22.174;2022-10-31T01:12:11;100936.66;;;11.74;100.00
50349;BME280;36250;48.740;22.174;2022-10-31T01:14:37;100938.50;;;11.74;100.00
50349;BME280;36250;48.740;22.174;2022-10-31T01:17:02;100931.19;;;11.76;100.00
50349;BME280;36250;48.740;22.174;2022-10-31T01:19:27;100935.78;;;11.82;100.00
50349;BME280;36250;48.740;22.174;2022-10-31T01:21:55;100937.41;;;11.83;100.00
50349;BME280;36250;48.740;22.174;2022-10-31T01:24:21;100934.41;;;11.86;100.00
50349;BME280;36250;48.740;22.174;2022-10-31T01:26:46;100935.03;;;11.88;100.00
50349;BME280;36250;48.740;22.174;2022-10-31T01:29:12;100928.72;;;11.89;100.00
50349;BME280;36250;48.740;22.174;2022-10-31T01:31:39;100936.78;;;11.81;100.00
50349;BME280;36250;48.740;22.174;2022-10-31T01:34:05;100931.72;;;11.71;100.00
50349;BME280;36250;48.740;22.174;2022-10-31T01:36:34;100943.25;;;11.64;100.00
50349;BME280;36250;48.740;22.174;2022-10-31T01:39:06;100931.00;;;11.63;100.00
50349;BME280;36250;48.740;22.174;2022-10-31T01:41:33;100933.28;;;11.66;100.00
50349;BME280;36250;48.740;22.174;2022-10-31T01:44:02;100927.34;;;11.64;100.00
50349;BME280;36250;48.740;22.174;2022-10-31T01:46:37;100923.69;;;11.65;100.00
50349;BME280;36250;48.740;22.174;2022-10-31T01:49:09;100924.13;;;11.68;100.00
50349;BME280;36250;48.740;22.174;2022-10-31T01:51:42;100925.25;;;11.74;100.00
50349;BME280;36250;48.740;22.174;2022-10-31T01:54:12;100934.13;;;11.81;100.00
50349;BME280;36250;48.740;22.174;2022-10-31T01:56:42;100926.63;;;11.85;100.00
50349;BME280;36250;48.740;22.174;2022-10-31T01:59:11;100928.94;;;11.88;100.00
50349;BME280;36250;48.740;22.174;2022-10-31T02:01:39;100921.59;;;11.90;100.00
50349;BME280;36250;48.740;22.174;2022-10-31T02:04:05;100917.75;;;11.93;100.00
50349;BME280;36250;48.740;22.174;2022-10-31T02:06:43;100924.91;;;11.92;100.00
50349;BME280;36250;48.740;22.174;2022-10-31T02:09:12;100914.28;;;11.92;100.00
50349;BME280;36250;48.740;22.174;2022-10-31T02:11:38;100916.94;;;11.92;100.00
50349;BME280;36250;48.740;22.174;2022-10-31T02:14:03;100924.06;;;11.92;100.00
50349;BME280;36250;48.740;22.174;2022-10-31T02:16:29;100918.75;;;11.92;100.00
50349;BME280;36250;48.740;22.174;2022-10-31T02:18:54;100920.41;;;11.93;100.00
50349;BME280;36250;48.740;22.174;2022-10-31T02:30:05;100917.75;;;11.93;100.00
50349;BME280;36250;48.740;22.174;2022-10-31T02:40:30;100922.41;;;11.91;100.00
50349;BME280;36250;48.740;22.174;2022-10-31T02:43:40;100922.25;;;11.92;100.00
50349;BME280;36250;48.740;22.174;2022-10-31T02:46:21;100925.06;;;11.91;100.00
50349;BME280;36250;48.740;22.174;2022-10-31T02:48:51;100926.53;;;11.93;100.00
50349;BME280;36250;48.740;22.174;2022-10-31T02:51:18;100921.03;;;11.95;100.00
50349;BME280;36250;48.740;22.174;2022-10-31T02:53:44;100928.19;;;11.94;100.00
50349;BME280;36250;48.740;22.174;2022-10-31T02:58:37;100929.28;;;12.00;100.00
50349;BME280;36250;48.740;22.174;2022-10-31T03:01:24;100932.94;;;11.99;100.00
50349;BME280;36250;48.740;22.174;2022-10-31T03:04:16;100930.63;;;12.04;100.00
50349;BME280;36250;48.740;22.174;2022-10-31T03:06:53;100936.75;;;12.05;100.00
50349;BME280;36250;48.740;22.174;2022-10-31T03:12:07;100934.25;;;12.03;100.00
50349;BME280;36250;48.740;22.174;2022-10-31T03:14:51;100931.78;;;12.01;100.00
50349;BME280;36250;48.740;22.174;2022-10-31T03:17:45;100925.66;;;12.01;100.00
50349;BME280;36250;48.740;22.174;2022-10-31T03:20:14;100935.97;;;11.96;100.00
50349;BME280;36250;48.740;22.174;2022-10-31T03:22:44;100935.88;;;11.89;100.00
50349;BME280;36250;48.740;22.174;2022-10-31T03:25:10;100932.09;;;11.83;100.00
50349;BME280;36250;48.740;22.174;2022-10-31T03:27:37;100929.09;;;11.86;100.00
50349;BME280;36250;48.740;22.174;2022-10-31T03:30:06;100925.72;;;11.93;100.00
50349;BME280;36250;48.740;22.174;2022-10-31T03:32:38;100937.97;;;11.94;100.00
50349;BME280;36250;48.740;22.174;2022-10-31T03:35:05;100936.59;;;11.83;100.00
50349;BME280;36250;48.740;22.174;2022-10-31T03:37:33;100936.84;;;11.73;100.00
50349;BME280;36250;48.740;22.174;2022-10-31T03:40:00;100937.38;;;11.68;100.00
50349;BME280;36250;48.740;22.174;2022-10-31T03:42:33;100946.56;;;11.66;100.00
50349;BME280;36250;48.740;22.174;2022-10-31T03:45:09;100943.91;;;11.66;100.00
50349;BME280;36250;48.740;22.174;2022-10-31T03:47:36;100944.53;;;11.68;100.00
50349;BME280;36250;48.740;22.174;2022-10-31T03:50:04;100943.81;;;11.74;100.00
50349;BME280;36250;48.740;22.174;2022-10-31T03:55:10;100945.09;;;11.78;100.00
50349;BME280;36250;48.740;22.174;2022-10-31T03:57:42;100952.34;;;11.84;100.00
50349;BME280;36250;48.740;22.174;2022-10-31T04:00:13;100952.34;;;11.84;100.00
50349;BME280;36250;48.740;22.174;2022-10-31T04:02:43;100949.69;;;11.84;100.00
50349;BME280;36250;48.740;22.174;2022-10-31T04:05:12;100954.47;;;11.89;100.00
50349;BME280;36250;48.740;22.174;2022-10-31T04:07:42;100954.09;;;11.92;100.00
50349;BME280;36250;48.740;22.174;2022-10-31T04:10:13;100945.94;;;11.94;100.00
50349;BME280;36250;48.740;22.174;2022-10-31T04:12:39;100958.84;;;11.97;100.00
50349;BME280;36250;48.740;22.174;2022-10-31T04:15:07;100955.47;;;11.88;100.00
50349;BME280;36250;48.740;22.174;2022-10-31T04:17:39;100950.03;;;11.81;100.00
50349;BME280;36250;48.740;22.174;2022-10-31T04:20:06;100956.88;;;11.76;100.00
50349;BME280;36250;48.740;22.174;2022-10-31T04:22:31;100963.41;;;11.73;100.00
50349;BME280;36250;48.740;22.174;2022-10-31T04:24:56;100962.91;;;11.69;100.00
50349;BME280;36250;48.740;22.174;2022-10-31T04:27:22;100963.13;;;11.68;100.00
50349;BME280;36250;48.740;22.174;2022-10-31T04:29:47;100961.19;;;11.77;100.00
50349;BME280;36250;48.740;22.174;2022-10-31T04:32:12;100958.00;;;11.81;100.00
50349;BME280;36250;48.740;22.174;2022-10-31T04:34:38;100951.34;;;11.85;100.00
50349;BME280;36250;48.740;22.174;2022-10-31T04:37:03;100958.94;;;11.88;100.00
50349;BME280;36250;48.740;22.174;2022-10-31T04:39:28;100953.25;;;11.92;100.00
50349;BME280;36250;48.740;22.174;2022-10-31T04:41:53;100947.16;;;11.91;100.00
50349;BME280;36250;48.740;22.174;2022-10-31T04:44:19;100952.63;;;11.89;100.00
50349;BME280;36250;48.740;22.174;2022-10-31T04:46:44;100955.00;;;11.84;100.00
50349;BME280;36250;48.740;22.174;2022-10-31T04:49:09;100949.41;;;11.79;100.00
50349;BME280;36250;48.740;22.174;2022-10-31T04:51:35;100947.13;;;11.76;100.00
50349;BME280;36250;48.740;22.174;2022-10-31T04:54:00;100951.59;;;11.76;100.00
50349;BME280;36250;48.740;22.174;2022-10-31T04:56:26;100947.13;;;11.76;100.00
50349;BME280;36250;48.740;22.174;2022-10-31T04:58:51;100946.09;;;11.77;100.00
50349;BME280;36250;48.740;22.174;2022-10-31T05:01:17;100950.41;;;11.78;100.00
50349;BME280;36250;48.740;22.174;2022-10-31T05:03:42;100959.66;;;11.82;100.00
50349;BME280;36250;48.740;22.174;2022-10-31T05:06:07;100955.63;;;11.86;100.00
50349;BME280;36250;48.740;22.174;2022-10-31T05:08:33;100958.13;;;11.88;100.00
50349;BME280;36250;48.740;22.174;2022-10-31T05:11:02;100959.50;;;11.84;100.00
50349;BME280;36250;48.740;22.174;2022-10-31T05:13:27;100960.13;;;11.86;100.00
50349;BME280;36250;48.740;22.174;2022-10-31T05:15:53;100963.97;;;11.83;100.00
50349;BME280;36250;48.740;22.174;2022-10-31T05:18:18;100961.66;;;11.80;100.00
50349;BME280;36250;48.740;22.174;2022-10-31T05:20:43;100972.44;;;11.79;100.00
50349;BME280;36250;48.740;22.174;2022-10-31T05:23:09;100963.69;;;11.78;100.00
50349;BME280;36250;48.740;22.174;2022-10-31T05:25:34;100970.75;;;11.86;100.00
50349;BME280;36250;48.740;22.174;2022-10-31T05:27:59;100965.72;;;11.91;100.00
50349;BME280;36250;48.740;22.174;2022-10-31T05:30:28;100962.88;;;11.93;100.00
50349;BME280;36250;48.740;22.174;2022-10-31T05:32:54;100972.50;;;11.94;100.00
50349;BME280;36250;48.740;22.174;2022-10-31T05:35:25;100969.47;;;11.97;100.00
50349;BME280;36250;48.740;22.174;2022-10-31T05:37:51;100966.00;;;11.96;100.00
50349;BME280;36250;48.740;22.174;2022-10-31T05:40:17;100976.25;;;11.99;100.00
50349;BME280;36250;48.740;22.174;2022-10-31T05:42:44;100980.22;;;12.03;100.00
50349;BME280;36250;48.740;22.174;2022-10-31T05:45:11;100973.75;;;12.06;100.00
50349;BME280;36250;48.740;22.174;2022-10-31T05:47:38;100979.59;;;12.01;100.00
50349;BME280;36250;48.740;22.174;2022-10-31T05:50:04;100978.06;;;11.99;100.00
50349;BME280;36250;48.740;22.174;2022-10-31T05:52:30;100983.38;;;11.99;100.00
50349;BME280;36250;48.740;22.174;2022-10-31T05:54:55;100985.03;;;12.00;100.00
50349;BME280;36250;48.740;22.174;2022-10-31T05:57:21;100986.41;;;11.96;100.00
50349;BME280;36250;48.740;22.174;2022-10-31T05:59:46;100988.78;;;11.91;100.00
50349;BME280;36250;48.740;22.174;2022-10-31T06:02:11;100993.44;;;11.88;100.00
50349;BME280;36250;48.740;22.174;2022-10-31T06:04:37;100996.38;;;11.94;100.00
50349;BME280;36250;48.740;22.174;2022-10-31T06:07:02;100996.75;;;11.91;100.00
50349;BME280;36250;48.740;22.174;2022-10-31T06:09:27;100997.09;;;11.87;100.00
50349;BME280;36250;48.740;22.174;2022-10-31T06:11:53;101000.22;;;11.91;100.00
50349;BME280;36250;48.740;22.174;2022-10-31T06:14:18;100999.13;;;11.85;100.00
50349;BME280;36250;48.740;22.174;2022-10-31T06:16:43;101004.66;;;11.76;100.00
50349;BME280;36250;48.740;22.174;2022-10-31T06:19:09;101005.56;;;11.68;100.00
50349;BME280;36250;48.740;22.174;2022-10-31T06:21:34;101008.81;;;11.55;100.00
50349;BME280;36250;48.740;22.174;2022-10-31T06:24:00;101005.09;;;11.41;100.00
50349;BME280;36250;48.740;22.174;2022-10-31T06:26:25;101008.47;;;11.35;100.00
50349;BME280;36250;48.740;22.174;2022-10-31T06:28:50;101003.50;;;11.32;100.00
50349;BME280;36250;48.740;22.174;2022-10-31T06:31:15;101010.63;;;11.31;100.00
50349;BME280;36250;48.740;22.174;2022-10-31T06:33:41;101010.41;;;11.41;100.00
50349;BME280;36250;48.740;22.174;2022-10-31T06:36:07;101009.97;;;11.52;100.00
50349;BME280;36250;48.740;22.174;2022-10-31T06:38:33;101013.91;;;11.65;100.00
50349;BME280;36250;48.740;22.174;2022-10-31T06:41:02;101020.13;;;11.72;100.00
50349;BME280;36250;48.740;22.174;2022-10-31T06:43:29;101019.88;;;11.82;100.00
50349;BME280;36250;48.740;22.174;2022-10-31T06:45:54;101015.69;;;11.87;100.00
50349;BME280;36250;48.740;22.174;2022-10-31T06:48:20;101025.66;;;11.85;100.00
50349;BME280;36250;48.740;22.174;2022-10-31T06:50:45;101023.84;;;11.86;100.00
50349;BME280;36250;48.740;22.174;2022-10-31T06:53:11;101022.28;;;11.92;100.00
50349;BME280;36250;48.740;22.174;2022-10-31T06:55:36;101015.59;;;11.96;100.00
50349;BME280;36250;48.740;22.174;2022-10-31T06:58:01;101025.59;;;11.94;100.00
50349;BME280;36250;48.740;22.174;2022-10-31T07:00:28;101027.44;;;11.93;100.00
50349;BME280;36250;48.740;22.174;2022-10-31T07:02:57;101023.94;;;11.93;100.00
50349;BME280;36250;48.740;22.174;2022-10-31T07:05:24;101019.34;;;11.86;100.00
50349;BME280;36250;48.740;22.174;2022-10-31T07:07:57;101023.38;;;11.82;100.00
50349;BME280;36250;48.740;22.174;2022-10-31T07:10:24;101026.81;;;11.83;100.00
50349;BME280;36250;48.740;22.174;2022-10-31T07:12:58;101024.38;;;11.81;100.00
50349;BME280;36250;48.740;22.174;2022-10-31T07:15:25;101027.75;;;11.75;100.00
50349;BME280;36250;48.740;22.174;2022-10-31T07:17:50;101027.38;;;11.78;100.00
50349;BME280;36250;48.740;22.174;2022-10-31T07:20:16;101036.50;;;11.76;100.00
50349;BME280;36250;48.740;22.174;2022-10-31T07:22:41;101028.81;;;11.66;100.00
50349;BME280;36250;48.740;22.174;2022-10-31T07:25:07;101037.06;;;11.48;100.00
50349;BME280;36250;48.740;22.174;2022-10-31T07:27:40;101047.38;;;11.42;100.00
50349;BME280;36250;48.740;22.174;2022-10-31T07:30:07;101032.34;;;11.35;100.00
50349;BME280;36250;48.740;22.174;2022-10-31T07:32:40;101031.69;;;11.33;100.00
50349;BME280;36250;48.740;22.174;2022-10-31T07:35:10;101034.97;;;11.35;100.00
50349;BME280;36250;48.740;22.174;2022-10-31T07:37:36;101042.75;;;11.36;100.00
50349;BME280;36250;48.740;22.174;2022-10-31T07:40:05;101039.59;;;11.41;100.00
50349;BME280;36250;48.740;22.174;2022-10-31T07:42:40;101043.53;;;11.45;100.00
50349;BME280;36250;48.740;22.174;2022-10-31T07:45:08;101041.19;;;11.50;100.00
50349;BME280;36250;48.740;22.174;2022-10-31T07:50:10;101046.41;;;11.58;100.00
50349;BME280;36250;48.740;22.174;2022-10-31T07:52:36;101048.91;;;11.60;100.00
50349;BME280;36250;48.740;22.174;2022-10-31T07:55:01;101053.06;;;11.63;100.00
50349;BME280;36250;48.740;22.174;2022-10-31T07:57:27;101047.31;;;11.74;100.00
50349;BME280;36250;48.740;22.174;2022-10-31T07:59:53;101047.47;;;11.72;100.00
50349;BME280;36250;48.740;22.174;2022-10-31T08:02:18;101045.75;;;11.65;100.00
50349;BME280;36250;48.740;22.174;2022-10-31T08:04:43;101042.75;;;11.59;100.00
50349;BME280;36250;48.740;22.174;2022-10-31T08:07:09;101046.97;;;11.54;100.00
50349;BME280;36250;48.740;22.174;2022-10-31T08:09:34;101050.44;;;11.54;100.00
50349;BME280;36250;48.740;22.174;2022-10-31T08:11:59;101054.44;;;11.50;100.00
50349;BME280;36250;48.740;22.174;2022-10-31T08:14:26;101052.91;;;11.56;100.00
50349;BME280;36250;48.740;22.174;2022-10-31T08:16:52;101058.66;;;11.68;100.00
50349;BME280;36250;48.740;22.174;2022-10-31T08:19:17;101057.59;;;11.77;100.00
50349;BME280;36250;48.740;22.174;2022-10-31T08:21:43;101055.69;;;11.86;100.00
50349;BME280;36250;48.740;22.174;2022-10-31T08:24:08;101061.94;;;11.93;100.00
50349;BME280;36250;48.740;22.174;2022-10-31T08:26:34;101059.72;;;11.97;100.00
50349;BME280;36250;48.740;22.174;2022-10-31T08:28:59;101062.59;;;11.95;100.00
50349;BME280;36250;48.740;22.174;2022-10-31T08:31:27;101070.88;;;12.00;100.00
50349;BME280;36250;48.740;22.174;2022-10-31T08:33:52;101063.22;;;11.97;100.00
50349;BME280;36250;48.740;22.174;2022-10-31T08:36:19;101061.91;;;12.01;100.00
50349;BME280;36250;48.740;22.174;2022-10-31T08:38:44;101059.38;;;12.00;100.00
50349;BME280;36250;48.740;22.174;2022-10-31T08:41:11;101066.78;;;11.89;100.00
50349;BME280;36250;48.740;22.174;2022-10-31T08:43:36;101062.66;;;11.87;100.00
50349;BME280;36250;48.740;22.174;2022-10-31T08:46:01;101063.81;;;11.84;100.00
50349;BME280;36250;48.740;22.174;2022-10-31T08:48:27;101062.28;;;11.90;100.00
50349;BME280;36250;48.740;22.174;2022-10-31T08:50:56;101060.56;;;11.97;100.00
50349;BME280;36250;48.740;22.174;2022-10-31T08:53:23;101067.00;;;12.03;100.00
50349;BME280;36250;48.740;22.174;2022-10-31T08:55:48;101062.00;;;12.08;100.00
50349;BME280;36250;48.740;22.174;2022-10-31T08:58:16;101067.00;;;12.03;100.00
50349;BME280;36250;48.740;22.174;2022-10-31T09:00:42;101072.00;;;11.98;100.00
50349;BME280;36250;48.740;22.174;2022-10-31T09:03:28;101074.66;;;11.74;100.00
50349;BME280;36250;48.740;22.174;2022-10-31T09:05:59;101070.25;;;11.67;100.00
50349;BME280;36250;48.740;22.174;2022-10-31T09:08:25;101070.25;;;11.67;100.00
50349;BME280;36250;48.740;22.174;2022-10-31T09:10:50;101072.72;;;11.68;100.00
50349;BME280;36250;48.740;22.174;2022-10-31T09:13:20;101074.59;;;11.59;100.00
50349;BME280;36250;48.740;22.174;2022-10-31T09:15:47;101077.59;;;11.56;100.00
50349;BME280;36250;48.740;22.174;2022-10-31T09:18:15;101076.31;;;11.52;100.00
50349;BME280;36250;48.740;22.174;2022-10-31T09:20:43;101081.47;;;11.54;100.00
50349;BME280;36250;48.740;22.174;2022-10-31T09:25:37;101080.69;;;11.68;100.00
50349;BME280;36250;48.740;22.174;2022-10-31T09:28:04;101084.63;;;11.72;100.00
50349;BME280;36250;48.740;22.174;2022-10-31T09:30:32;101080.97;;;11.73;100.00
50349;BME280;36250;48.740;22.174;2022-10-31T09:33:01;101081.59;;;11.84;100.00
50349;BME280;36250;48.740;22.174;2022-10-31T09:35:27;101087.47;;;11.94;100.00
50349;BME280;36250;48.740;22.174;2022-10-31T09:40:23;101081.97;;;12.04;100.00
50349;BME280;36250;48.740;22.174;2022-10-31T09:42:58;101082.28;;;12.01;100.00
50349;BME280;36250;48.740;22.174;2022-10-31T09:45:39;101089.13;;;11.95;100.00
50349;BME280;36250;48.740;22.174;2022-10-31T09:51:06;101078.09;;;11.83;100.00
50349;BME280;36250;48.740;22.174;2022-10-31T09:56:11;101078.75;;;11.85;100.00
50349;BME280;36250;48.740;22.174;2022-10-31T09:58:43;101080.97;;;11.97;100.00
50349;BME280;36250;48.740;22.174;2022-10-31T10:01:26;101076.94;;;12.09;100.00
50349;BME280;36250;48.740;22.174;2022-10-31T10:03:58;101083.53;;;12.13;100.00
50349;BME280;36250;48.740;22.174;2022-10-31T10:06:28;101077.22;;;12.14;100.00
50349;BME280;36250;48.740;22.174;2022-10-31T10:08:55;101077.78;;;12.25;100.00
50349;BME280;36250;48.740;22.174;2022-10-31T10:11:43;101081.09;;;12.27;100.00
50349;BME280;36250;48.740;22.174;2022-10-31T10:22:47;101071.31;;;12.57;100.00
50349;BME280;36250;48.740;22.174;2022-10-31T10:25:20;101071.78;;;12.61;100.00
50349;BME280;36250;48.740;22.174;2022-10-31T10:30:20;101072.59;;;12.61;100.00
50349;BME280;36250;48.740;22.174;2022-10-31T10:32:59;101072.25;;;12.50;100.00
50349;BME280;36250;48.740;22.174;2022-10-31T10:35:31;101075.31;;;12.38;100.00
50349;BME280;36250;48.740;22.174;2022-10-31T10:40:52;101070.78;;;12.62;100.00
50349;BME280;36250;48.740;22.174;2022-10-31T10:43:33;101068.50;;;12.74;100.00
50349;BME280;36250;48.740;22.174;2022-10-31T10:49:06;101067.09;;;12.93;100.00
50349;BME280;36250;48.740;22.174;2022-10-31T10:57:01;101068.13;;;12.62;100.00
50349;BME280;36250;48.740;22.174;2022-10-31T10:59:30;101070.03;;;12.68;100.00
50349;BME280;36250;48.740;22.174;2022-10-31T11:01:58;101067.84;;;12.72;100.00
50349;BME280;36250;48.740;22.174;2022-10-31T11:04:32;101061.34;;;12.74;100.00
50349;BME280;36250;48.740;22.174;2022-10-31T11:07:05;101065.38;;;12.70;100.00
50349;BME280;36250;48.740;22.174;2022-10-31T11:09:32;101061.16;;;12.76;100.00
50349;BME280;36250;48.740;22.174;2022-10-31T11:11:58;101063.06;;;12.82;100.00
50349;BME280;36250;48.740;22.174;2022-10-31T11:14:26;101059.50;;;12.90;100.00
50349;BME280;36250;48.740;22.174;2022-10-31T11:17:06;101053.72;;;13.01;100.00
50349;BME280;36250;48.740;22.174;2022-10-31T11:19:32;101058.91;;;13.10;100.00
50349;BME280;36250;48.740;22.174;2022-10-31T11:22:12;101059.81;;;13.17;100.00
50349;BME280;36250;48.740;22.174;2022-10-31T11:24:41;101058.41;;;13.21;100.00
50349;BME280;36250;48.740;22.174;2022-10-31T11:27:15;101055.97;;;13.19;100.00
50349;BME280;36250;48.740;22.174;2022-10-31T11:29:41;101056.41;;;13.23;100.00
50349;BME280;36250;48.740;22.174;2022-10-31T11:32:16;101055.03;;;13.27;100.00
50349;BME280;36250;48.740;22.174;2022-10-31T11:34:43;101052.56;;;13.26;100.00
50349;BME280;36250;48.740;22.174;2022-10-31T11:37:16;101060.38;;;13.27;100.00
50349;BME280;36250;48.740;22.174;2022-10-31T11:39:45;101062.81;;;13.29;100.00
50349;BME280;36250;48.740;22.174;2022-10-31T11:42:20;101055.72;;;13.36;100.00
50349;BME280;36250;48.740;22.174;2022-10-31T11:44:46;101062.16;;;13.42;100.00
50349;BME280;36250;48.740;22.174;2022-10-31T11:47:14;101062.31;;;13.40;100.00
50349;BME280;36250;48.740;22.174;2022-10-31T11:49:42;101060.41;;;13.34;100.00
50349;BME280;36250;48.740;22.174;2022-10-31T11:52:18;101055.69;;;13.29;100.00
50349;BME280;36250;48.740;22.174;2022-10-31T11:55:29;101055.03;;;13.27;100.00
50349;BME280;36250;48.740;22.174;2022-10-31T11:57:56;101056.22;;;13.25;100.00
50349;BME280;36250;48.740;22.174;2022-10-31T12:00:33;101058.25;;;13.23;100.00
50349;BME280;36250;48.740;22.174;2022-10-31T12:03:26;101054.03;;;13.28;100.00
50349;BME280;36250;48.740;22.174;2022-10-31T12:06:23;101058.38;;;13.36;100.00
50349;BME280;36250;48.740;22.174;2022-10-31T12:08:49;101045.66;;;13.31;100.00
50349;BME280;36250;48.740;22.174;2022-10-31T12:16:40;101051.69;;;12.88;100.00
50349;BME280;36250;48.740;22.174;2022-10-31T12:22:29;101058.03;;;12.72;100.00
50349;BME280;36250;48.740;22.174;2022-10-31T12:35:44;101050.06;;;12.72;100.00
50349;BME280;36250;48.740;22.174;2022-10-31T12:46:04;101047.50;;;12.79;100.00
50349;BME280;36250;48.740;22.174;2022-10-31T12:48:44;101044.94;;;12.71;100.00
50349;BME280;36250;48.740;22.174;2022-10-31T12:54:15;101045.75;;;12.71;100.00
50349;BME280;36250;48.740;22.174;2022-10-31T12:56:52;101052.06;;;12.70;100.00
50349;BME280;36250;48.740;22.174;2022-10-31T12:59:31;101054.63;;;12.64;100.00
50349;BME280;36250;48.740;22.174;2022-10-31T13:02:10;101046.22;;;12.60;100.00
50349;BME280;36250;48.740;22.174;2022-10-31T13:07:17;101049.97;;;12.51;100.00
50349;BME280;36250;48.740;22.174;2022-10-31T13:09:55;101053.91;;;12.55;100.00
50349;BME280;36250;48.740;22.174;2022-10-31T13:12:22;101052.66;;;12.66;100.00
50349;BME280;36250;48.740;22.174;2022-10-31T13:14:59;101047.59;;;12.71;100.00
50349;BME280;36250;48.740;22.174;2022-10-31T13:17:43;101051.00;;;12.65;100.00
50349;BME280;36250;48.740;22.174;2022-10-31T13:20:15;101039.00;;;12.54;100.00
50349;BME280;36250;48.740;22.174;2022-10-31T13:22:44;101047.59;;;12.56;100.00
50349;BME280;36250;48.740;22.174;2022-10-31T13:25:15;101050.91;;;12.58;100.00
50349;BME280;36250;48.740;22.174;2022-10-31T13:27:47;101043.56;;;12.60;100.00
50349;BME280;36250;48.740;22.174;2022-10-31T13:30:21;101037.97;;;12.55;100.00
50349;BME280;36250;48.740;22.174;2022-10-31T13:35:27;101047.06;;;12.45;100.00
50349;BME280;36250;48.740;22.174;2022-10-31T13:40:48;101042.19;;;12.49;100.00
50349;BME280;36250;48.740;22.174;2022-10-31T13:43:27;101039.25;;;12.59;100.00
50349;BME280;36250;48.740;22.174;2022-10-31T13:45:55;101047.88;;;12.61;100.00
50349;BME280;36250;48.740;22.174;2022-10-31T13:48:38;101041.53;;;12.62;100.00
50349;BME280;36250;48.740;22.174;2022-10-31T13:51:07;101043.19;;;12.63;100.00
50349;BME280;36250;48.740;22.174;2022-10-31T13:56:23;101041.19;;;12.65;100.00
50349;BME280;36250;48.740;22.174;2022-10-31T13:58:57;101034.84;;;12.51;100.00
50349;BME280;36250;48.740;22.174;2022-10-31T14:01:23;101039.50;;;12.34;100.00
50349;BME280;36250;48.740;22.174;2022-10-31T14:06:34;101047.72;;;12.09;100.00
50349;BME280;36250;48.740;22.174;2022-10-31T14:09:01;101048.66;;;12.16;100.00
50349;BME280;36250;48.740;22.174;2022-10-31T14:11:27;101041.34;;;12.19;100.00
50349;BME280;36250;48.740;22.174;2022-10-31T14:13:55;101050.75;;;12.21;100.00
50349;BME280;36250;48.740;22.174;2022-10-31T14:16:25;101037.31;;;12.23;100.00
50349;BME280;36250;48.740;22.174;2022-10-31T14:19:00;101037.78;;;12.26;100.00
50349;BME280;36250;48.740;22.174;2022-10-31T14:21:29;101041.00;;;12.37;100.00
50349;BME280;36250;48.740;22.174;2022-10-31T14:23:55;101042.06;;;12.42;100.00